createdAt,value
2018-08-07T00:00:00.058Z,5.87
2018-08-07T00:04:08.432Z,6.40
2018-08-07T00:08:16.704Z,5.10
2018-08-07T00:12:25.035Z,4.97
2018-08-07T00:16:33.421Z,5.37
2018-08-07T00:20:41.784Z,6.27
2018-08-07T00:24:50.117Z,5.77
2018-08-07T00:28:58.490Z,6.00
2018-08-07T00:33:06.829Z,4.92
2018-08-07T00:37:15.175Z,5.37
2018-08-07T00:41:23.522Z,5.42
2018-08-07T00:45:31.787Z,5.70
2018-08-07T00:49:40.183Z,5.90
2018-08-07T00:53:48.218Z,6.10
2018-08-07T00:57:56.561Z,4.90
2018-08-07T01:02:04.896Z,6.03
2018-08-07T01:06:13.186Z,5.20
2018-08-07T01:10:21.503Z,5.40
2018-08-07T01:14:29.807Z,6.87
2018-08-07T01:18:38.103Z,4.77
2018-08-07T01:22:46.547Z,6.10
2018-08-07T01:26:54.921Z,5.90
2018-08-07T01:31:03.183Z,5.57
2018-08-07T01:35:12.384Z,6.23
2018-08-07T01:39:21.545Z,5.00
2018-08-07T01:43:29.842Z,5.30
2018-08-07T01:47:38.339Z,5.67
2018-08-07T01:51:46.669Z,5.83
2018-08-07T01:55:54.984Z,5.80
2018-08-07T02:00:03.855Z,6.03
2018-08-07T02:04:12.172Z,6.37
2018-08-07T02:08:20.614Z,6.70
2018-08-07T02:12:28.933Z,5.70
2018-08-07T02:16:37.246Z,5.90
2018-08-07T02:20:45.549Z,6.00
2018-08-07T02:24:53.887Z,6.63
2018-08-07T02:29:02.218Z,6.27
2018-08-07T02:33:10.520Z,6.60
2018-08-07T02:37:18.840Z,6.20
2018-08-07T02:41:26.895Z,6.50
2018-08-07T02:45:35.197Z,6.57
2018-08-07T02:49:43.470Z,5.70
2018-08-07T02:53:51.760Z,6.47
2018-08-07T02:58:00.056Z,6.30
2018-08-07T03:02:08.511Z,5.70
2018-08-07T03:06:16.805Z,6.47
2018-08-07T03:10:25.265Z,6.33
2018-08-07T03:14:33.552Z,6.30
2018-08-07T03:18:41.889Z,6.40
2018-08-07T03:22:50.221Z,6.17
2018-08-07T03:26:58.509Z,5.90
2018-08-07T03:31:07.227Z,6.00
2018-08-07T03:35:15.611Z,6.83
2018-08-07T03:39:23.941Z,7.07
2018-08-07T03:43:32.247Z,7.37
2018-08-07T03:47:40.638Z,7.00
2018-08-07T03:51:48.939Z,6.07
2018-08-07T03:55:57.231Z,7.23
2018-08-07T04:00:08.750Z,6.37
2018-08-07T04:04:17.144Z,6.20
2018-08-07T04:08:25.165Z,6.50
2018-08-07T04:12:33.516Z,6.23
2018-08-07T04:16:47.982Z,6.43
2018-08-07T04:20:56.400Z,6.43
2018-08-07T04:25:05.134Z,7.73
2018-08-07T04:29:13.391Z,7.30
2018-08-07T04:33:21.763Z,7.03
2018-08-07T04:37:29.783Z,8.00
2018-08-07T04:41:38.242Z,7.37
2018-08-07T04:45:46.682Z,6.50
2018-08-07T04:49:54.979Z,7.10
2018-08-07T04:54:03.244Z,6.80
2018-08-07T04:58:11.536Z,6.77
2018-08-07T05:02:20.066Z,6.83
2018-08-07T05:06:28.410Z,7.07
2018-08-07T05:10:36.804Z,6.60
2018-08-07T05:14:45.250Z,7.57
2018-08-07T05:18:53.618Z,6.90
2018-08-07T05:23:01.929Z,7.37
2018-08-07T05:27:10.301Z,7.50
2018-08-07T05:31:18.613Z,6.42
2018-08-07T05:35:26.979Z,7.40
2018-08-07T05:39:35.304Z,7.63
2018-08-07T05:43:43.593Z,7.07
2018-08-07T05:47:51.923Z,9.70
2018-08-07T05:52:00.221Z,7.50
2018-08-07T05:56:08.561Z,6.90
2018-08-07T06:00:19.035Z,6.47
2018-08-07T06:04:27.319Z,7.70
2018-08-07T06:08:35.687Z,6.33
2018-08-07T06:12:44.008Z,6.10
2018-08-07T06:16:52.377Z,6.70
2018-08-07T06:21:00.876Z,6.40
2018-08-07T06:25:09.671Z,6.30
2018-08-07T06:29:18.008Z,6.93
2018-08-07T06:33:26.347Z,7.53
2018-08-07T06:37:34.674Z,6.60
2018-08-07T06:41:45.472Z,6.73
2018-08-07T06:45:54.404Z,6.13
2018-08-07T06:50:02.841Z,7.33
2018-08-07T06:54:11.187Z,6.60
2018-08-07T06:58:19.542Z,7.50
2018-08-07T07:02:27.968Z,6.43
2018-08-07T07:06:36.317Z,6.33
2018-08-07T07:10:44.601Z,7.20
2018-08-07T07:14:53.064Z,7.20
2018-08-07T07:19:01.328Z,6.37
2018-08-07T07:23:09.693Z,6.60
2018-08-07T07:27:18.017Z,6.87
2018-08-07T07:31:26.280Z,6.30
2018-08-07T07:35:34.641Z,6.70
2018-08-07T07:39:42.941Z,7.53
2018-08-07T07:43:50.963Z,8.80
2018-08-07T07:47:59.303Z,6.97
2018-08-07T07:52:07.686Z,6.13
2018-08-07T07:56:15.935Z,6.17
2018-08-07T08:00:27.070Z,6.50
2018-08-07T08:04:35.568Z,6.07
2018-08-07T08:08:43.963Z,6.50
2018-08-07T08:12:52.393Z,5.43
2018-08-07T08:17:00.708Z,6.53
2018-08-07T08:21:09.001Z,5.87
2018-08-07T08:25:17.383Z,6.73
2018-08-07T08:29:25.868Z,6.33
2018-08-07T08:33:34.002Z,5.33
2018-08-07T08:37:42.936Z,5.70
2018-08-07T08:41:51.240Z,5.90
2018-08-07T08:45:59.508Z,6.23
2018-08-07T08:50:10.240Z,5.93
2018-08-07T08:54:18.545Z,5.90
2018-08-07T08:58:26.874Z,5.97
2018-08-07T09:02:35.126Z,6.67
2018-08-07T09:06:43.462Z,6.20
2018-08-07T09:10:52.724Z,6.90
2018-08-07T09:15:01.052Z,6.13
2018-08-07T09:19:09.443Z,5.40
2018-08-07T09:23:17.807Z,5.90
2018-08-07T09:27:25.840Z,6.70
2018-08-07T09:31:34.538Z,6.13
2018-08-07T09:35:42.832Z,5.70
2018-08-07T09:39:51.455Z,8.33
2018-08-07T09:43:59.779Z,5.73
2018-08-07T09:48:10.083Z,6.20
2018-08-07T09:52:18.396Z,5.97
2018-08-07T09:56:26.397Z,5.37
2018-08-07T10:00:39.924Z,5.77
2018-08-07T10:04:48.596Z,6.50
2018-08-07T10:08:57.253Z,5.23
2018-08-07T10:13:05.633Z,5.97
2018-08-07T10:17:13.906Z,6.43
2018-08-07T10:21:22.496Z,5.90
2018-08-07T10:25:30.814Z,5.80
2018-08-07T10:29:39.171Z,5.30
2018-08-07T10:33:47.495Z,5.70
2018-08-07T10:37:55.832Z,5.10
2018-08-07T10:42:03.911Z,5.03
2018-08-07T10:46:12.231Z,5.03
2018-08-07T10:50:22.749Z,6.00
2018-08-07T10:54:31.053Z,5.00
2018-08-07T10:58:39.391Z,5.50
2018-08-07T11:02:48.925Z,5.47
2018-08-07T11:06:57.232Z,5.30
2018-08-07T11:11:05.564Z,4.47
2018-08-07T11:15:18.305Z,4.30
2018-08-07T11:19:26.597Z,5.00
2018-08-07T11:23:34.890Z,5.20
2018-08-07T11:27:43.195Z,5.00
2018-08-07T11:31:51.562Z,5.13
2018-08-07T11:35:59.868Z,5.17
2018-08-07T11:40:09.447Z,5.37
2018-08-07T11:44:17.837Z,5.20
2018-08-07T11:48:26.260Z,6.00
2018-08-07T11:52:34.513Z,5.50
2018-08-07T11:56:42.863Z,5.73
2018-08-07T12:00:51.162Z,6.00
2018-08-07T12:04:59.462Z,5.23
2018-08-07T12:09:09.147Z,5.43
2018-08-07T12:13:17.489Z,5.13
2018-08-07T12:17:25.822Z,5.23
2018-08-07T12:21:34.156Z,5.30
2018-08-07T12:25:42.443Z,4.50
2018-08-07T12:29:50.746Z,4.63
2018-08-07T12:33:59.074Z,5.27
2018-08-07T12:38:07.347Z,5.43
2018-08-07T12:42:15.650Z,4.70
2018-08-07T12:46:24.004Z,5.20
2018-08-07T12:50:32.320Z,5.10
2018-08-07T12:54:40.638Z,4.67
2018-08-07T12:58:48.938Z,5.60
2018-08-07T13:02:57.331Z,5.20
2018-08-07T13:07:05.666Z,4.50
2018-08-07T13:11:13.999Z,4.37
2018-08-07T13:15:22.694Z,4.23
2018-08-07T13:19:31.045Z,4.20
2018-08-07T13:23:39.102Z,5.20
2018-08-07T13:27:47.454Z,5.27
2018-08-07T13:31:55.796Z,5.20
2018-08-07T13:36:04.093Z,5.67
2018-08-07T13:40:14.534Z,5.80
2018-08-07T13:44:22.600Z,5.13
2018-08-07T13:48:30.878Z,6.20
2018-08-07T13:52:39.745Z,6.30
2018-08-07T13:56:48.071Z,4.70
2018-08-07T14:00:56.421Z,5.40
2018-08-07T14:05:04.832Z,5.80
2018-08-07T14:09:13.288Z,5.10
2018-08-07T14:13:21.583Z,6.07
2018-08-07T14:17:29.892Z,5.07
2018-08-07T14:21:38.224Z,5.50
2018-08-07T14:25:46.606Z,5.10
2018-08-07T14:29:54.902Z,5.60
2018-08-07T14:34:03.213Z,4.77
2018-08-07T14:38:11.544Z,4.97
2018-08-07T14:42:19.921Z,5.07
2018-08-07T14:46:28.192Z,5.00
2018-08-07T14:50:36.472Z,5.27
2018-08-07T14:54:44.796Z,4.77
2018-08-07T14:58:53.183Z,5.10
2018-08-07T15:03:01.547Z,4.97
2018-08-07T15:07:09.861Z,5.53
2018-08-07T15:11:18.189Z,4.45
2018-08-07T15:15:28.348Z,6.30
2018-08-07T15:19:36.665Z,5.70
2018-08-07T15:23:44.968Z,5.53
2018-08-07T15:27:53.338Z,5.23
2018-08-07T15:32:01.712Z,6.00
2018-08-07T15:36:10.032Z,5.33
2018-08-07T15:40:18.862Z,5.87
2018-08-07T15:44:27.192Z,5.30
2018-08-07T15:48:35.495Z,4.43
2018-08-07T15:52:45.024Z,4.50
2018-08-07T15:56:53.434Z,4.97
2018-08-07T16:01:01.699Z,5.07
2018-08-07T16:05:10.057Z,4.43
2018-08-07T16:09:18.412Z,4.77
2018-08-07T16:13:26.692Z,5.30
2018-08-07T16:17:35.073Z,5.03
2018-08-07T16:21:43.408Z,5.10
2018-08-07T16:25:51.462Z,4.37
2018-08-07T16:29:59.803Z,5.27
2018-08-07T16:34:08.174Z,5.00
2018-08-07T16:38:16.533Z,4.50
2018-08-07T16:42:24.928Z,4.70
2018-08-07T16:46:33.468Z,4.53
2018-08-07T16:50:41.773Z,4.83
2018-08-07T16:54:50.076Z,4.40
2018-08-07T16:58:58.431Z,4.77
2018-08-07T17:03:06.922Z,4.60
2018-08-07T17:07:15.253Z,4.33
2018-08-07T17:11:23.947Z,5.40
2018-08-07T17:15:32.253Z,5.30
2018-08-07T17:19:40.589Z,5.00
2018-08-07T17:23:48.946Z,5.10
2018-08-07T17:27:57.277Z,4.10
2018-08-07T17:32:05.595Z,5.63
2018-08-07T17:36:13.875Z,4.80
2018-08-07T17:40:24.160Z,4.43
2018-08-07T17:44:32.221Z,6.93
2018-08-07T17:48:40.544Z,4.87
2018-08-07T17:52:48.958Z,5.00
2018-08-07T17:56:57.244Z,4.40
2018-08-07T18:01:05.590Z,3.90
2018-08-07T18:05:13.928Z,4.83
2018-08-07T18:09:22.341Z,4.20
2018-08-07T18:13:30.648Z,4.43
2018-08-07T18:17:39.076Z,5.30
2018-08-07T18:21:47.450Z,4.43
2018-08-07T18:25:55.810Z,4.67
2018-08-07T18:30:06.807Z,5.00
2018-08-07T18:34:15.135Z,5.40
2018-08-07T18:38:23.459Z,4.30
2018-08-07T18:42:31.766Z,5.50
2018-08-07T18:46:40.081Z,4.97
2018-08-07T18:50:48.374Z,4.97
2018-08-07T18:54:56.681Z,4.93
2018-08-07T18:59:05.080Z,5.23
2018-08-07T19:03:13.434Z,5.43
2018-08-07T19:07:21.778Z,4.97
2018-08-07T19:11:30.055Z,5.90
2018-08-07T19:15:38.377Z,6.60
2018-08-07T19:19:46.701Z,6.73
2018-08-07T19:23:55.109Z,6.70
2018-08-07T19:28:03.402Z,5.00
2018-08-07T19:32:11.796Z,6.50
2018-08-07T19:36:20.163Z,6.27
2018-08-07T19:40:28.455Z,6.33
2018-08-07T19:44:36.770Z,6.83
2018-08-07T19:48:45.100Z,6.57
2018-08-07T19:52:53.435Z,5.40
2018-08-07T19:57:01.851Z,6.80
2018-08-07T20:01:10.194Z,6.57
2018-08-07T20:05:18.503Z,8.10
2018-08-07T20:09:27.076Z,8.23
2018-08-07T20:13:35.383Z,8.83
2018-08-07T20:17:43.785Z,9.10
2018-08-07T20:21:52.794Z,8.43
2018-08-07T20:26:01.106Z,6.77
2018-08-07T20:30:11.828Z,6.60
2018-08-07T20:34:20.133Z,5.90
2018-08-07T20:38:28.475Z,5.40
2018-08-07T20:42:36.765Z,6.67
2018-08-07T20:46:45.113Z,6.30
2018-08-07T20:50:53.470Z,6.77
2018-08-07T20:55:01.737Z,6.20
2018-08-07T20:59:10.039Z,6.73
2018-08-07T21:03:18.351Z,6.97
2018-08-07T21:07:26.617Z,6.70
2018-08-07T21:11:34.987Z,6.87
2018-08-07T21:15:43.310Z,7.63
2018-08-07T21:19:52.067Z,6.13
2018-08-07T21:24:00.322Z,6.50
2018-08-07T21:28:08.660Z,6.27
2018-08-07T21:32:16.943Z,7.27
2018-08-07T21:36:25.304Z,6.73
2018-08-07T21:40:33.595Z,7.20
2018-08-07T21:44:41.884Z,7.10
2018-08-07T21:48:50.171Z,7.20
2018-08-07T21:52:58.527Z,6.60
2018-08-07T21:57:06.868Z,7.27
2018-08-07T22:01:15.170Z,6.90
2018-08-07T22:05:23.501Z,7.07
2018-08-07T22:09:31.846Z,6.63
2018-08-07T22:13:40.187Z,7.20
2018-08-07T22:17:48.587Z,7.10
2018-08-07T22:21:56.882Z,6.97
2018-08-07T22:26:05.223Z,7.90
2018-08-07T22:30:16.680Z,6.87
2018-08-07T22:34:24.963Z,7.40
2018-08-07T22:38:33.275Z,7.23
2018-08-07T22:42:41.566Z,7.00
2018-08-07T22:46:49.884Z,6.37
2018-08-07T22:50:58.183Z,6.60
2018-08-07T22:55:08.481Z,6.60
2018-08-07T22:59:16.762Z,6.87
2018-08-07T23:03:25.113Z,6.90
2018-08-07T23:07:33.390Z,7.22
2018-08-07T23:11:41.687Z,6.30
2018-08-07T23:15:50.398Z,8.13
2018-08-07T23:19:58.675Z,7.80
2018-08-07T23:24:06.987Z,7.80
2018-08-07T23:28:15.283Z,6.53
2018-08-07T23:32:23.639Z,6.97
2018-08-07T23:36:31.925Z,5.87
2018-08-07T23:40:40.207Z,7.80
2018-08-07T23:44:48.514Z,7.60
2018-08-07T23:48:56.819Z,8.47
2018-08-07T23:53:05.087Z,8.10
2018-08-07T23:57:13.413Z,7.47
